sensor_id;sensor_type;location;lat;lon;timestamp;temperature;humidity
63313;DHT22;49442;45.640;13.812;2023-04-25T00:01:46;10.40;99.90
63313;DHT22;49442;45.640;13.812;2023-04-25T00:04:12;10.30;99.90
63313;DHT22;49442;45.640;13.812;2023-04-25T00:06:38;10.40;99.90
63313;DHT22;49442;45.640;13.812;2023-04-25T00:09:05;10.30;99.90
63313;DHT22;49442;45.640;13.812;2023-04-25T00:11:35;10.40;99.90
63313;DHT22;49442;45.640;13.812;2023-04-25T00:14:02;10.30;99.90
63313;DHT22;49442;45.640;13.812;2023-04-25T00:16:28;10.30;99.90
63313;DHT22;49442;45.640;13.812;2023-04-25T00:18:56;10.30;99.90
63313;DHT22;49442;45.640;13.812;2023-04-25T00:21:22;10.30;99.90
63313;DHT22;49442;45.640;13.812;2023-04-25T00:23:49;10.40;99.90
63313;DHT22;49442;45.640;13.812;2023-04-25T00:26:15;10.40;99.90
63313;DHT22;49442;45.640;13.812;2023-04-25T00:28:41;10.40;99.90
63313;DHT22;49442;45.640;13.812;2023-04-25T00:31:07;10.40;99.90
63313;DHT22;49442;45.640;13.812;2023-04-25T00:33:32;10.40;99.90
63313;DHT22;49442;45.640;13.812;2023-04-25T00:35:58;10.30;99.90
63313;DHT22;49442;45.640;13.812;2023-04-25T00:38:24;10.20;99.90
63313;DHT22;49442;45.640;13.812;2023-04-25T00:40:49;10.10;99.90
63313;DHT22;49442;45.640;13.812;2023-04-25T00:43:15;10.10;99.90
63313;DHT22;49442;45.640;13.812;2023-04-25T00:45:43;10.00;99.90
63313;DHT22;49442;45.640;13.812;2023-04-25T00:48:08;10.10;99.90
63313;DHT22;49442;45.640;13.812;2023-04-25T00:50:35;10.30;99.90
63313;DHT22;49442;45.640;13.812;2023-04-25T00:53:01;10.30;99.90
63313;DHT22;49442;45.640;13.812;2023-04-25T00:55:28;10.30;99.90
63313;DHT22;49442;45.640;13.812;2023-04-25T00:57:55;10.30;99.90
63313;DHT22;49442;45.640;13.812;2023-04-25T01:00:20;10.20;99.90
63313;DHT22;49442;45.640;13.812;2023-04-25T01:02:46;10.10;99.90
63313;DHT22;49442;45.640;13.812;2023-04-25T01:05:12;10.10;99.90
63313;DHT22;49442;45.640;13.812;2023-04-25T01:07:39;10.00;99.90
63313;DHT22;49442;45.640;13.812;2023-04-25T01:10:05;9.90;99.90
63313;DHT22;49442;45.640;13.812;2023-04-25T01:12:31;9.90;99.90
63313;DHT22;49442;45.640;13.812;2023-04-25T01:14:57;10.10;99.90
63313;DHT22;49442;45.640;13.812;2023-04-25T01:17:23;10.00;99.90
63313;DHT22;49442;45.640;13.812;2023-04-25T01:19:49;10.00;99.90
63313;DHT22;49442;45.640;13.812;2023-04-25T01:22:16;10.00;99.90
63313;DHT22;49442;45.640;13.812;2023-04-25T01:24:42;9.90;99.90
63313;DHT22;49442;45.640;13.812;2023-04-25T01:27:09;9.80;99.90
63313;DHT22;49442;45.640;13.812;2023-04-25T01:29:35;9.80;99.90
63313;DHT22;49442;45.640;13.812;2023-04-25T01:32:01;9.70;99.90
63313;DHT22;49442;45.640;13.812;2023-04-25T01:34:27;9.70;99.90
63313;DHT22;49442;45.640;13.812;2023-04-25T01:36:53;9.60;99.90
63313;DHT22;49442;45.640;13.812;2023-04-25T01:39:20;9.60;99.90
63313;DHT22;49442;45.640;13.812;2023-04-25T01:41:47;9.50;99.90
63313;DHT22;49442;45.640;13.812;2023-04-25T01:44:13;9.50;99.90
63313;DHT22;49442;45.640;13.812;2023-04-25T01:46:40;9.50;99.90
63313;DHT22;49442;45.640;13.812;2023-04-25T01:49:06;9.40;99.90
63313;DHT22;49442;45.640;13.812;2023-04-25T01:51:32;9.40;99.90
63313;DHT22;49442;45.640;13.812;2023-04-25T01:53:57;9.40;99.90
63313;DHT22;49442;45.640;13.812;2023-04-25T01:56:23;9.40;99.90
63313;DHT22;49442;45.640;13.812;2023-04-25T01:58:49;9.50;99.90
63313;DHT22;49442;45.640;13.812;2023-04-25T02:01:15;9.50;99.90
63313;DHT22;49442;45.640;13.812;2023-04-25T02:03:41;9.50;99.90
63313;DHT22;49442;45.640;13.812;2023-04-25T02:06:06;9.50;99.90
63313;DHT22;49442;45.640;13.812;2023-04-25T02:08:32;9.50;99.90
63313;DHT22;49442;45.640;13.812;2023-04-25T02:10:59;9.60;99.90
63313;DHT22;49442;45.640;13.812;2023-04-25T02:13:24;9.70;99.90
63313;DHT22;49442;45.640;13.812;2023-04-25T02:15:50;9.80;99.90
63313;DHT22;49442;45.640;13.812;2023-04-25T02:18:16;9.80;99.90
63313;DHT22;49442;45.640;13.812;2023-04-25T02:20:42;9.80;99.90
63313;DHT22;49442;45.640;13.812;2023-04-25T02:23:08;9.70;99.90
63313;DHT22;49442;45.640;13.812;2023-04-25T02:25:34;9.70;99.90
63313;DHT22;49442;45.640;13.812;2023-04-25T02:28:00;9.60;99.90
63313;DHT22;49442;45.640;13.812;2023-04-25T02:30:25;9.60;99.90
63313;DHT22;49442;45.640;13.812;2023-04-25T02:32:51;9.50;99.90
63313;DHT22;49442;45.640;13.812;2023-04-25T02:35:17;9.50;99.90
63313;DHT22;49442;45.640;13.812;2023-04-25T02:37:43;9.50;99.90
63313;DHT22;49442;45.640;13.812;2023-04-25T02:40:09;9.40;99.90
63313;DHT22;49442;45.640;13.812;2023-04-25T02:42:35;9.40;99.90
63313;DHT22;49442;45.640;13.812;2023-04-25T02:45:01;9.40;99.90
63313;DHT22;49442;45.640;13.812;2023-04-25T02:47:27;9.30;99.90
63313;DHT22;49442;45.640;13.812;2023-04-25T02:49:53;9.30;99.90
63313;DHT22;49442;45.640;13.812;2023-04-25T02:52:19;9.30;99.90
63313;DHT22;49442;45.640;13.812;2023-04-25T02:54:45;9.30;99.90
63313;DHT22;49442;45.640;13.812;2023-04-25T02:57:10;9.30;99.90
63313;DHT22;49442;45.640;13.812;2023-04-25T02:59:36;9.20;99.90
63313;DHT22;49442;45.640;13.812;2023-04-25T03:02:02;9.20;99.90
63313;DHT22;49442;45.640;13.812;2023-04-25T03:04:28;9.20;99.90
63313;DHT22;49442;45.640;13.812;2023-04-25T03:06:54;9.20;99.90
63313;DHT22;49442;45.640;13.812;2023-04-25T03:09:20;9.10;99.90
63313;DHT22;49442;45.640;13.812;2023-04-25T03:11:46;9.10;99.90
63313;DHT22;49442;45.640;13.812;2023-04-25T03:14:13;9.10;99.90
63313;DHT22;49442;45.640;13.812;2023-04-25T03:16:39;9.10;99.90
63313;DHT22;49442;45.640;13.812;2023-04-25T03:19:04;9.00;99.90
63313;DHT22;49442;45.640;13.812;2023-04-25T03:21:31;9.00;99.90
63313;DHT22;49442;45.640;13.812;2023-04-25T03:23:58;9.00;99.90
63313;DHT22;49442;45.640;13.812;2023-04-25T03:26:23;9.00;99.90
63313;DHT22;49442;45.640;13.812;2023-04-25T03:28:49;9.00;99.90
63313;DHT22;49442;45.640;13.812;2023-04-25T03:31:15;9.00;99.90
63313;DHT22;49442;45.640;13.812;2023-04-25T03:33:41;8.90;99.90
63313;DHT22;49442;45.640;13.812;2023-04-25T03:36:07;9.00;99.90
63313;DHT22;49442;45.640;13.812;2023-04-25T03:38:33;9.00;99.90
63313;DHT22;49442;45.640;13.812;2023-04-25T03:40:58;8.90;99.90
63313;DHT22;49442;45.640;13.812;2023-04-25T03:43:24;8.80;99.90
63313;DHT22;49442;45.640;13.812;2023-04-25T03:45:50;8.70;99.90
63313;DHT22;49442;45.640;13.812;2023-04-25T03:48:16;8.70;99.90
63313;DHT22;49442;45.640;13.812;2023-04-25T03:50:42;8.70;99.90
63313;DHT22;49442;45.640;13.812;2023-04-25T03:53:07;8.70;99.90
63313;DHT22;49442;45.640;13.812;2023-04-25T03:55:33;8.70;99.90
63313;DHT22;49442;45.640;13.812;2023-04-25T03:57:59;8.70;99.90
63313;DHT22;49442;45.640;13.812;2023-04-25T04:00:25;8.70;99.90
63313;DHT22;49442;45.640;13.812;2023-04-25T04:02:51;8.60;99.90
63313;DHT22;49442;45.640;13.812;2023-04-25T04:05:16;8.70;99.90
63313;DHT22;49442;45.640;13.812;2023-04-25T04:07:42;8.70;99.90
63313;DHT22;49442;45.640;13.812;2023-04-25T04:10:09;8.60;99.90
63313;DHT22;49442;45.640;13.812;2023-04-25T04:12:36;8.60;99.90
63313;DHT22;49442;45.640;13.812;2023-04-25T04:15:05;8.60;99.90
63313;DHT22;49442;45.640;13.812;2023-04-25T04:17:31;8.60;99.90
63313;DHT22;49442;45.640;13.812;2023-04-25T04:19:57;8.50;99.90
63313;DHT22;49442;45.640;13.812;2023-04-25T04:22:23;8.50;99.90
63313;DHT22;49442;45.640;13.812;2023-04-25T04:24:50;8.60;99.90
63313;DHT22;49442;45.640;13.812;2023-04-25T04:27:17;8.60;99.90
63313;DHT22;49442;45.640;13.812;2023-04-25T04:29:43;8.70;99.90
63313;DHT22;49442;45.640;13.812;2023-04-25T04:32:09;8.80;99.90
63313;DHT22;49442;45.640;13.812;2023-04-25T04:34:35;9.00;99.90
63313;DHT22;49442;45.640;13.812;2023-04-25T04:37:01;9.00;99.90
63313;DHT22;49442;45.640;13.812;2023-04-25T04:39:27;9.20;99.90
63313;DHT22;49442;45.640;13.812;2023-04-25T04:41:53;9.40;99.90
63313;DHT22;49442;45.640;13.812;2023-04-25T04:44:18;9.50;99.90
63313;DHT22;49442;45.640;13.812;2023-04-25T04:46:45;9.60;99.90
63313;DHT22;49442;45.640;13.812;2023-04-25T04:49:12;9.70;99.90
63313;DHT22;49442;45.640;13.812;2023-04-25T04:51:39;9.80;99.90
63313;DHT22;49442;45.640;13.812;2023-04-25T04:54:05;9.90;99.90
63313;DHT22;49442;45.640;13.812;2023-04-25T04:56:32;10.00;99.90
63313;DHT22;49442;45.640;13.812;2023-04-25T04:58:58;10.10;99.90
63313;DHT22;49442;45.640;13.812;2023-04-25T05:01:24;10.20;99.90
63313;DHT22;49442;45.640;13.812;2023-04-25T05:03:50;10.30;99.90
63313;DHT22;49442;45.640;13.812;2023-04-25T05:06:18;10.40;99.90
63313;DHT22;49442;45.640;13.812;2023-04-25T05:08:43;10.40;99.90
63313;DHT22;49442;45.640;13.812;2023-04-25T05:11:09;10.40;99.90
63313;DHT22;49442;45.640;13.812;2023-04-25T05:13:35;10.50;99.90
63313;DHT22;49442;45.640;13.812;2023-04-25T05:16:01;10.50;99.90
63313;DHT22;49442;45.640;13.812;2023-04-25T05:18:26;10.60;99.90
63313;DHT22;49442;45.640;13.812;2023-04-25T05:20:52;10.60;99.90
63313;DHT22;49442;45.640;13.812;2023-04-25T05:23:18;10.70;99.90
63313;DHT22;49442;45.640;13.812;2023-04-25T05:25:44;10.80;99.90
63313;DHT22;49442;45.640;13.812;2023-04-25T05:28:12;10.90;99.90
63313;DHT22;49442;45.640;13.812;2023-04-25T05:30:37;11.00;99.90
63313;DHT22;49442;45.640;13.812;2023-04-25T05:33:03;11.00;99.90
63313;DHT22;49442;45.640;13.812;2023-04-25T05:35:29;11.10;99.90
63313;DHT22;49442;45.640;13.812;2023-04-25T05:37:55;11.10;99.90
63313;DHT22;49442;45.640;13.812;2023-04-25T05:40:21;11.20;99.90
63313;DHT22;49442;45.640;13.812;2023-04-25T05:42:46;11.20;99.90
63313;DHT22;49442;45.640;13.812;2023-04-25T05:45:12;11.20;99.90
63313;DHT22;49442;45.640;13.812;2023-04-25T05:47:38;11.30;99.90
63313;DHT22;49442;45.640;13.812;2023-04-25T05:50:04;11.30;99.90
63313;DHT22;49442;45.640;13.812;2023-04-25T05:52:30;11.40;99.90
63313;DHT22;49442;45.640;13.812;2023-04-25T05:54:56;11.40;99.90
63313;DHT22;49442;45.640;13.812;2023-04-25T05:57:22;11.50;99.90
63313;DHT22;49442;45.640;13.812;2023-04-25T05:59:48;11.50;99.90
63313;DHT22;49442;45.640;13.812;2023-04-25T06:02:14;11.60;99.90
63313;DHT22;49442;45.640;13.812;2023-04-25T06:04:41;11.70;99.90
63313;DHT22;49442;45.640;13.812;2023-04-25T06:07:07;11.90;99.90
63313;DHT22;49442;45.640;13.812;2023-04-25T06:09:33;12.00;99.90
63313;DHT22;49442;45.640;13.812;2023-04-25T06:11:59;12.20;99.90
63313;DHT22;49442;45.640;13.812;2023-04-25T06:14:25;12.30;99.90
63313;DHT22;49442;45.640;13.812;2023-04-25T06:16:50;12.40;99.90
63313;DHT22;49442;45.640;13.812;2023-04-25T06:19:17;12.50;99.90
63313;DHT22;49442;45.640;13.812;2023-04-25T06:21:43;12.70;99.90
63313;DHT22;49442;45.640;13.812;2023-04-25T06:24:09;12.80;99.90
63313;DHT22;49442;45.640;13.812;2023-04-25T06:26:35;12.90;99.90
63313;DHT22;49442;45.640;13.812;2023-04-25T06:29:01;13.10;99.90
63313;DHT22;49442;45.640;13.812;2023-04-25T06:31:26;13.10;99.90
63313;DHT22;49442;45.640;13.812;2023-04-25T06:33:54;13.30;99.90
63313;DHT22;49442;45.640;13.812;2023-04-25T06:36:20;13.40;99.90
63313;DHT22;49442;45.640;13.812;2023-04-25T06:38:51;13.40;99.90
63313;DHT22;49442;45.640;13.812;2023-04-25T06:41:17;13.40;99.90
63313;DHT22;49442;45.640;13.812;2023-04-25T06:43:44;13.40;99.90
63313;DHT22;49442;45.640;13.812;2023-04-25T06:46:10;13.30;99.90
63313;DHT22;49442;45.640;13.812;2023-04-25T06:48:36;13.20;99.90
63313;DHT22;49442;45.640;13.812;2023-04-25T06:51:02;13.20;99.90
63313;DHT22;49442;45.640;13.812;2023-04-25T06:53:28;13.20;99.90
63313;DHT22;49442;45.640;13.812;2023-04-25T06:55:53;13.10;99.90
63313;DHT22;49442;45.640;13.812;2023-04-25T06:58:19;13.20;99.90
63313;DHT22;49442;45.640;13.812;2023-04-25T07:00:45;13.20;99.90
63313;DHT22;49442;45.640;13.812;2023-04-25T07:03:11;13.20;99.90
63313;DHT22;49442;45.640;13.812;2023-04-25T07:05:37;13.20;99.90
63313;DHT22;49442;45.640;13.812;2023-04-25T07:08:03;13.10;99.90
63313;DHT22;49442;45.640;13.812;2023-04-25T07:10:29;13.00;99.90
63313;DHT22;49442;45.640;13.812;2023-04-25T07:12:55;12.90;99.90
63313;DHT22;49442;45.640;13.812;2023-04-25T07:15:20;12.70;99.90
63313;DHT22;49442;45.640;13.812;2023-04-25T07:17:46;12.60;99.90
63313;DHT22;49442;45.640;13.812;2023-04-25T07:20:12;12.50;99.90
63313;DHT22;49442;45.640;13.812;2023-04-25T07:22:37;12.40;99.90
63313;DHT22;49442;45.640;13.812;2023-04-25T07:25:03;12.40;99.90
63313;DHT22;49442;45.640;13.812;2023-04-25T07:27:30;12.40;99.90
63313;DHT22;49442;45.640;13.812;2023-04-25T07:29:55;12.40;99.90
63313;DHT22;49442;45.640;13.812;2023-04-25T07:32:21;12.30;99.90
63313;DHT22;49442;45.640;13.812;2023-04-25T07:34:47;12.30;99.90
63313;DHT22;49442;45.640;13.812;2023-04-25T07:37:13;12.30;99.90
63313;DHT22;49442;45.640;13.812;2023-04-25T07:39:39;12.30;99.90
63313;DHT22;49442;45.640;13.812;2023-04-25T07:42:05;12.30;99.90
63313;DHT22;49442;45.640;13.812;2023-04-25T07:44:34;12.30;99.90
63313;DHT22;49442;45.640;13.812;2023-04-25T07:47:07;12.40;99.90
63313;DHT22;49442;45.640;13.812;2023-04-25T07:49:34;12.40;99.90
63313;DHT22;49442;45.640;13.812;2023-04-25T07:52:04;12.30;99.90
63313;DHT22;49442;45.640;13.812;2023-04-25T07:54:31;12.30;99.90
63313;DHT22;49442;45.640;13.812;2023-04-25T07:56:58;12.30;99.90
63313;DHT22;49442;45.640;13.812;2023-04-25T07:59:24;12.20;99.90
63313;DHT22;49442;45.640;13.812;2023-04-25T08:01:50;12.20;99.90
63313;DHT22;49442;45.640;13.812;2023-04-25T08:04:16;12.10;99.90
63313;DHT22;49442;45.640;13.812;2023-04-25T08:06:42;12.20;99.90
63313;DHT22;49442;45.640;13.812;2023-04-25T08:09:08;12.20;99.90
63313;DHT22;49442;45.640;13.812;2023-04-25T08:11:35;12.20;99.90
63313;DHT22;49442;45.640;13.812;2023-04-25T08:14:00;12.20;99.90
63313;DHT22;49442;45.640;13.812;2023-04-25T08:16:27;12.20;99.90
63313;DHT22;49442;45.640;13.812;2023-04-25T08:18:53;12.20;99.90
63313;DHT22;49442;45.640;13.812;2023-04-25T08:21:18;12.20;99.90
63313;DHT22;49442;45.640;13.812;2023-04-25T08:23:44;12.20;99.90
63313;DHT22;49442;45.640;13.812;2023-04-25T08:26:10;12.20;99.90
63313;DHT22;49442;45.640;13.812;2023-04-25T08:28:36;12.20;99.90
63313;DHT22;49442;45.640;13.812;2023-04-25T08:31:01;12.10;99.90
63313;DHT22;49442;45.640;13.812;2023-04-25T08:33:27;12.10;99.90
63313;DHT22;49442;45.640;13.812;2023-04-25T08:35:53;12.00;99.90
63313;DHT22;49442;45.640;13.812;2023-04-25T08:38:18;12.00;99.90
63313;DHT22;49442;45.640;13.812;2023-04-25T08:40:49;12.00;99.90
63313;DHT22;49442;45.640;13.812;2023-04-25T08:43:18;12.10;99.90
63313;DHT22;49442;45.640;13.812;2023-04-25T08:45:45;12.10;99.90
63313;DHT22;49442;45.640;13.812;2023-04-25T08:48:16;12.10;99.90
63313;DHT22;49442;45.640;13.812;2023-04-25T08:50:52;12.10;99.90
63313;DHT22;49442;45.640;13.812;2023-04-25T08:53:31;12.00;99.90
63313;DHT22;49442;45.640;13.812;2023-04-25T08:56:00;12.00;99.90
63313;DHT22;49442;45.640;13.812;2023-04-25T08:58:32;12.10;99.90
63313;DHT22;49442;45.640;13.812;2023-04-25T09:00:58;12.10;99.90
63313;DHT22;49442;45.640;13.812;2023-04-25T09:03:28;12.10;99.90
63313;DHT22;49442;45.640;13.812;2023-04-25T09:05:54;11.90;99.90
63313;DHT22;49442;45.640;13.812;2023-04-25T09:08:20;11.90;99.90
63313;DHT22;49442;45.640;13.812;2023-04-25T09:10:46;11.80;99.90
63313;DHT22;49442;45.640;13.812;2023-04-25T09:13:14;11.80;99.90
63313;DHT22;49442;45.640;13.812;2023-04-25T09:16:07;11.80;99.90
63313;DHT22;49442;45.640;13.812;2023-04-25T09:18:35;11.90;99.90
63313;DHT22;49442;45.640;13.812;2023-04-25T09:21:11;11.90;99.90
63313;DHT22;49442;45.640;13.812;2023-04-25T09:23:49;12.00;99.90
63313;DHT22;49442;45.640;13.812;2023-04-25T09:26:19;11.90;99.90
63313;DHT22;49442;45.640;13.812;2023-04-25T09:28:45;11.90;99.90
63313;DHT22;49442;45.640;13.812;2023-04-25T09:31:24;11.90;99.90
63313;DHT22;49442;45.640;13.812;2023-04-25T09:34:01;11.90;99.90
63313;DHT22;49442;45.640;13.812;2023-04-25T09:36:28;12.00;99.90
63313;DHT22;49442;45.640;13.812;2023-04-25T09:38:55;12.00;99.90
63313;DHT22;49442;45.640;13.812;2023-04-25T09:41:25;12.00;99.90
63313;DHT22;49442;45.640;13.812;2023-04-25T09:43:50;12.00;99.90
63313;DHT22;49442;45.640;13.812;2023-04-25T09:46:16;11.90;99.90
63313;DHT22;49442;45.640;13.812;2023-04-25T09:48:50;11.90;99.90
63313;DHT22;49442;45.640;13.812;2023-04-25T09:51:16;11.80;99.90
63313;DHT22;49442;45.640;13.812;2023-04-25T09:53:44;11.80;99.90
63313;DHT22;49442;45.640;13.812;2023-04-25T09:56:20;11.90;99.90
63313;DHT22;49442;45.640;13.812;2023-04-25T09:58:47;11.80;99.90
63313;DHT22;49442;45.640;13.812;2023-04-25T10:01:16;11.80;99.90
63313;DHT22;49442;45.640;13.812;2023-04-25T10:03:43;11.80;99.90
63313;DHT22;49442;45.640;13.812;2023-04-25T10:06:14;11.90;99.90
63313;DHT22;49442;45.640;13.812;2023-04-25T10:08:42;11.90;99.90
63313;DHT22;49442;45.640;13.812;2023-04-25T10:11:09;11.90;99.90
63313;DHT22;49442;45.640;13.812;2023-04-25T10:13:35;12.00;99.90
63313;DHT22;49442;45.640;13.812;2023-04-25T10:16:03;12.00;99.90
63313;DHT22;49442;45.640;13.812;2023-04-25T10:18:30;11.90;99.90
63313;DHT22;49442;45.640;13.812;2023-04-25T10:20:58;11.90;99.90
63313;DHT22;49442;45.640;13.812;2023-04-25T10:23:25;11.90;99.90
63313;DHT22;49442;45.640;13.812;2023-04-25T10:25:52;11.90;99.90
63313;DHT22;49442;45.640;13.812;2023-04-25T10:28:20;11.80;99.90
63313;DHT22;49442;45.640;13.812;2023-04-25T10:31:06;11.80;99.90
63313;DHT22;49442;45.640;13.812;2023-04-25T10:33:40;11.90;99.90
63313;DHT22;49442;45.640;13.812;2023-04-25T10:36:17;11.90;99.90
63313;DHT22;49442;45.640;13.812;2023-04-25T10:38:44;11.90;99.90
63313;DHT22;49442;45.640;13.812;2023-04-25T10:41:11;12.00;99.90
63313;DHT22;49442;45.640;13.812;2023-04-25T10:43:45;12.00;99.90
63313;DHT22;49442;45.640;13.812;2023-04-25T10:46:26;12.00;99.90
63313;DHT22;49442;45.640;13.812;2023-04-25T10:48:53;12.00;99.90
63313;DHT22;49442;45.640;13.812;2023-04-25T10:51:20;11.90;99.90
63313;DHT22;49442;45.640;13.812;2023-04-25T10:54:09;11.90;99.90
63313;DHT22;49442;45.640;13.812;2023-04-25T10:56:40;11.90;99.90
63313;DHT22;49442;45.640;13.812;2023-04-25T11:01:51;11.90;99.90
63313;DHT22;49442;45.640;13.812;2023-04-25T11:04:31;11.90;99.90
63313;DHT22;49442;45.640;13.812;2023-04-25T11:09:26;11.90;99.90
63313;DHT22;49442;45.640;13.812;2023-04-25T11:11:56;11.80;99.90
63313;DHT22;49442;45.640;13.812;2023-04-25T11:14:22;11.80;99.90
63313;DHT22;49442;45.640;13.812;2023-04-25T11:16:52;11.90;99.90
63313;DHT22;49442;45.640;13.812;2023-04-25T11:19:20;11.80;99.90
63313;DHT22;49442;45.640;13.812;2023-04-25T11:21:46;11.90;99.90
63313;DHT22;49442;45.640;13.812;2023-04-25T11:24:11;11.90;99.90
63313;DHT22;49442;45.640;13.812;2023-04-25T11:26:37;12.00;99.90
63313;DHT22;49442;45.640;13.812;2023-04-25T11:29:03;11.90;99.90
63313;DHT22;49442;45.640;13.812;2023-04-25T11:31:29;11.90;99.90
63313;DHT22;49442;45.640;13.812;2023-04-25T11:33:58;11.90;99.90
63313;DHT22;49442;45.640;13.812;2023-04-25T11:36:24;11.90;99.90
63313;DHT22;49442;45.640;13.812;2023-04-25T11:38:52;11.80;99.90
63313;DHT22;49442;45.640;13.812;2023-04-25T11:41:18;11.70;99.90
63313;DHT22;49442;45.640;13.812;2023-04-25T11:43:44;11.70;99.90
63313;DHT22;49442;45.640;13.812;2023-04-25T11:46:10;11.80;99.90
63313;DHT22;49442;45.640;13.812;2023-04-25T11:48:40;11.80;99.90
63313;DHT22;49442;45.640;13.812;2023-04-25T11:51:06;11.80;99.90
63313;DHT22;49442;45.640;13.812;2023-04-25T11:53:32;11.70;99.90
63313;DHT22;49442;45.640;13.812;2023-04-25T11:55:58;11.70;99.90
63313;DHT22;49442;45.640;13.812;2023-04-25T11:58:23;11.70;99.90
63313;DHT22;49442;45.640;13.812;2023-04-25T12:00:49;11.60;99.90
63313;DHT22;49442;45.640;13.812;2023-04-25T12:03:15;11.70;99.90
63313;DHT22;49442;45.640;13.812;2023-04-25T12:05:42;11.80;99.90
63313;DHT22;49442;45.640;13.812;2023-04-25T12:08:11;11.80;99.90
63313;DHT22;49442;45.640;13.812;2023-04-25T12:10:41;11.80;99.90
63313;DHT22;49442;45.640;13.812;2023-04-25T12:13:25;11.70;99.90
63313;DHT22;49442;45.640;13.812;2023-04-25T12:15:54;11.70;99.90
63313;DHT22;49442;45.640;13.812;2023-04-25T12:18:21;11.70;99.90
63313;DHT22;49442;45.640;13.812;2023-04-25T12:20:48;11.70;99.90
63313;DHT22;49442;45.640;13.812;2023-04-25T12:23:14;11.60;99.90
63313;DHT22;49442;45.640;13.812;2023-04-25T12:25:42;11.60;99.90
63313;DHT22;49442;45.640;13.812;2023-04-25T12:33:25;11.80;99.90
63313;DHT22;49442;45.640;13.812;2023-04-25T12:35:53;11.80;99.90
63313;DHT22;49442;45.640;13.812;2023-04-25T12:38:27;11.80;99.90
63313;DHT22;49442;45.640;13.812;2023-04-25T12:40:53;11.80;99.90
63313;DHT22;49442;45.640;13.812;2023-04-25T12:43:19;11.80;99.90
63313;DHT22;49442;45.640;13.812;2023-04-25T12:45:49;11.80;99.90
63313;DHT22;49442;45.640;13.812;2023-04-25T12:48:16;11.80;99.90
63313;DHT22;49442;45.640;13.812;2023-04-25T12:50:42;11.80;99.90
63313;DHT22;49442;45.640;13.812;2023-04-25T12:55:53;11.80;99.90
63313;DHT22;49442;45.640;13.812;2023-04-25T12:58:19;11.80;99.90
63313;DHT22;49442;45.640;13.812;2023-04-25T13:00:45;11.80;99.90
63313;DHT22;49442;45.640;13.812;2023-04-25T13:03:11;11.90;99.90
63313;DHT22;49442;45.640;13.812;2023-04-25T13:05:38;11.90;99.90
63313;DHT22;49442;45.640;13.812;2023-04-25T13:08:04;11.90;99.90
63313;DHT22;49442;45.640;13.812;2023-04-25T13:10:30;11.90;99.90
63313;DHT22;49442;45.640;13.812;2023-04-25T13:12:55;11.90;99.90
63313;DHT22;49442;45.640;13.812;2023-04-25T13:15:21;11.90;99.90
63313;DHT22;49442;45.640;13.812;2023-04-25T13:17:47;12.00;99.90
63313;DHT22;49442;45.640;13.812;2023-04-25T13:20:13;12.00;99.90
63313;DHT22;49442;45.640;13.812;2023-04-25T13:22:41;12.10;99.90
63313;DHT22;49442;45.640;13.812;2023-04-25T13:25:07;12.10;99.90
63313;DHT22;49442;45.640;13.812;2023-04-25T13:27:34;12.20;99.90
63313;DHT22;49442;45.640;13.812;2023-04-25T13:30:02;12.20;99.90
63313;DHT22;49442;45.640;13.812;2023-04-25T13:32:33;12.30;99.90
63313;DHT22;49442;45.640;13.812;2023-04-25T13:34:59;12.40;99.90
63313;DHT22;49442;45.640;13.812;2023-04-25T13:37:25;12.50;99.90
63313;DHT22;49442;45.640;13.812;2023-04-25T13:39:50;12.70;99.90
63313;DHT22;49442;45.640;13.812;2023-04-25T13:42:16;12.70;99.90
63313;DHT22;49442;45.640;13.812;2023-04-25T13:44:42;12.70;99.90
63313;DHT22;49442;45.640;13.812;2023-04-25T13:47:08;12.80;99.90
63313;DHT22;49442;45.640;13.812;2023-04-25T13:49:33;12.80;99.90
63313;DHT22;49442;45.640;13.812;2023-04-25T13:51:59;12.70;99.90
63313;DHT22;49442;45.640;13.812;2023-04-25T13:54:25;12.80;99.90
63313;DHT22;49442;45.640;13.812;2023-04-25T13:56:51;12.70;99.90
63313;DHT22;49442;45.640;13.812;2023-04-25T13:59:17;12.80;99.90
63313;DHT22;49442;45.640;13.812;2023-04-25T14:01:43;12.80;99.90
63313;DHT22;49442;45.640;13.812;2023-04-25T14:04:09;12.80;99.90
63313;DHT22;49442;45.640;13.812;2023-04-25T14:06:34;12.80;99.90
63313;DHT22;49442;45.640;13.812;2023-04-25T14:09:00;12.80;99.90
63313;DHT22;49442;45.640;13.812;2023-04-25T14:11:26;12.80;99.90
63313;DHT22;49442;45.640;13.812;2023-04-25T14:13:52;12.80;99.90
63313;DHT22;49442;45.640;13.812;2023-04-25T14:16:18;12.80;99.90
63313;DHT22;49442;45.640;13.812;2023-04-25T14:18:43;12.90;99.90
63313;DHT22;49442;45.640;13.812;2023-04-25T14:21:09;13.00;99.90
63313;DHT22;49442;45.640;13.812;2023-04-25T14:23:35;13.00;99.90
63313;DHT22;49442;45.640;13.812;2023-04-25T14:26:01;13.10;99.90
63313;DHT22;49442;45.640;13.812;2023-04-25T14:28:27;13.10;99.90
63313;DHT22;49442;45.640;13.812;2023-04-25T14:30:53;13.10;99.90
63313;DHT22;49442;45.640;13.812;2023-04-25T14:33:18;13.10;99.90
63313;DHT22;49442;45.640;13.812;2023-04-25T14:35:44;13.20;99.90
63313;DHT22;49442;45.640;13.812;2023-04-25T14:38:10;13.10;99.90
63313;DHT22;49442;45.640;13.812;2023-04-25T14:40:36;13.00;99.90
63313;DHT22;49442;45.640;13.812;2023-04-25T14:43:03;13.20;99.90
63313;DHT22;49442;45.640;13.812;2023-04-25T14:45:29;13.40;99.90
63313;DHT22;49442;45.640;13.812;2023-04-25T14:47:54;13.70;99.90
63313;DHT22;49442;45.640;13.812;2023-04-25T14:50:21;13.90;99.90
63313;DHT22;49442;45.640;13.812;2023-04-25T14:52:47;14.10;99.90
63313;DHT22;49442;45.640;13.812;2023-04-25T14:55:13;14.40;99.90
63313;DHT22;49442;45.640;13.812;2023-04-25T14:57:39;14.60;99.90
63313;DHT22;49442;45.640;13.812;2023-04-25T15:00:06;15.10;99.90
63313;DHT22;49442;45.640;13.812;2023-04-25T15:02:35;15.30;99.90
63313;DHT22;49442;45.640;13.812;2023-04-25T15:05:01;15.60;99.90
63313;DHT22;49442;45.640;13.812;2023-04-25T15:07:27;15.70;99.90
63313;DHT22;49442;45.640;13.812;2023-04-25T15:09:53;15.50;99.90
63313;DHT22;49442;45.640;13.812;2023-04-25T15:12:19;15.40;99.90
63313;DHT22;49442;45.640;13.812;2023-04-25T15:14:45;15.30;99.90
63313;DHT22;49442;45.640;13.812;2023-04-25T15:17:11;15.30;99.90
63313;DHT22;49442;45.640;13.812;2023-04-25T15:19:39;15.20;99.90
63313;DHT22;49442;45.640;13.812;2023-04-25T15:22:05;15.20;99.90
63313;DHT22;49442;45.640;13.812;2023-04-25T15:24:32;15.10;99.90
63313;DHT22;49442;45.640;13.812;2023-04-25T15:26:58;15.00;99.90
63313;DHT22;49442;45.640;13.812;2023-04-25T15:29:24;15.00;99.90
63313;DHT22;49442;45.640;13.812;2023-04-25T15:31:50;14.90;99.90